sensor_id;sensor_type;location;lat;lon;timestamp;P1;durP1;ratioP1;P2;durP2;ratioP2
85738;SDS011;76182;41.498;22.100;2024-02-14T00:01:30;5.85;;;3.95;;
85738;SDS011;76182;41.498;22.100;2024-02-14T00:03:56;5.50;;;4.53;;
85738;SDS011;76182;41.498;22.100;2024-02-14T00:06:22;6.00;;;4.30;;
85738;SDS011;76182;41.498;22.100;2024-02-14T00:08:48;4.82;;;3.83;;
85738;SDS011;76182;41.498;22.100;2024-02-14T00:11:14;5.07;;;3.97;;
85738;SDS011;76182;41.498;22.100;2024-02-14T00:13:39;6.15;;;4.97;;
85738;SDS011;76182;41.498;22.100;2024-02-14T00:16:05;6.88;;;4.00;;
85738;SDS011;76182;41.498;22.100;2024-02-14T00:18:31;6.95;;;4.53;;
85738;SDS011;76182;41.498;22.100;2024-02-14T00:20:57;4.63;;;3.75;;
85738;SDS011;76182;41.498;22.100;2024-02-14T00:23:22;9.00;;;4.47;;
85738;SDS011;76182;41.498;22.100;2024-02-14T00:25:48;5.85;;;4.00;;
85738;SDS011;76182;41.498;22.100;2024-02-14T00:28:13;5.30;;;4.03;;
85738;SDS011;76182;41.498;22.100;2024-02-14T00:30:38;5.72;;;4.35;;
85738;SDS011;76182;41.498;22.100;2024-02-14T00:33:04;6.95;;;4.13;;
85738;SDS011;76182;41.498;22.100;2024-02-14T00:35:29;7.35;;;4.60;;
85738;SDS011;76182;41.498;22.100;2024-02-14T00:37:55;5.20;;;3.92;;
85738;SDS011;76182;41.498;22.100;2024-02-14T00:40:20;6.05;;;3.53;;
85738;SDS011;76182;41.498;22.100;2024-02-14T00:42:46;6.13;;;3.83;;
85738;SDS011;76182;41.498;22.100;2024-02-14T00:45:11;5.35;;;4.10;;
85738;SDS011;76182;41.498;22.100;2024-02-14T00:47:37;6.32;;;3.72;;
85738;SDS011;76182;41.498;22.100;2024-02-14T00:50:02;5.32;;;3.63;;
85738;SDS011;76182;41.498;22.100;2024-02-14T00:52:28;4.90;;;3.65;;
85738;SDS011;76182;41.498;22.100;2024-02-14T00:54:54;4.28;;;3.42;;
85738;SDS011;76182;41.498;22.100;2024-02-14T00:57:20;5.03;;;3.22;;
85738;SDS011;76182;41.498;22.100;2024-02-14T00:59:51;5.65;;;3.45;;
85738;SDS011;76182;41.498;22.100;2024-02-14T01:02:21;4.55;;;3.13;;
85738;SDS011;76182;41.498;22.100;2024-02-14T01:04:47;4.70;;;3.65;;
85738;SDS011;76182;41.498;22.100;2024-02-14T01:07:12;4.35;;;3.28;;
85738;SDS011;76182;41.498;22.100;2024-02-14T01:09:38;5.65;;;3.55;;
85738;SDS011;76182;41.498;22.100;2024-02-14T01:12:03;5.05;;;3.55;;
85738;SDS011;76182;41.498;22.100;2024-02-14T01:14:29;4.35;;;3.00;;
85738;SDS011;76182;41.498;22.100;2024-02-14T01:16:56;6.25;;;3.63;;
85738;SDS011;76182;41.498;22.100;2024-02-14T01:19:21;4.25;;;3.22;;
85738;SDS011;76182;41.498;22.100;2024-02-14T01:21:49;4.95;;;3.65;;
85738;SDS011;76182;41.498;22.100;2024-02-14T01:24:15;5.32;;;3.67;;
85738;SDS011;76182;41.498;22.100;2024-02-14T01:26:41;4.82;;;3.20;;
85738;SDS011;76182;41.498;22.100;2024-02-14T01:29:07;5.68;;;3.63;;
85738;SDS011;76182;41.498;22.100;2024-02-14T01:31:32;4.72;;;3.53;;
85738;SDS011;76182;41.498;22.100;2024-02-14T01:33:59;5.10;;;3.80;;
85738;SDS011;76182;41.498;22.100;2024-02-14T01:36:26;6.78;;;3.92;;
85738;SDS011;76182;41.498;22.100;2024-02-14T01:38:55;4.25;;;3.47;;
85738;SDS011;76182;41.498;22.100;2024-02-14T01:41:20;4.93;;;2.97;;
85738;SDS011;76182;41.498;22.100;2024-02-14T01:43:49;5.63;;;3.65;;
85738;SDS011;76182;41.498;22.100;2024-02-14T01:46:15;5.93;;;3.95;;
85738;SDS011;76182;41.498;22.100;2024-02-14T01:48:41;4.60;;;3.30;;
85738;SDS011;76182;41.498;22.100;2024-02-14T01:51:08;6.13;;;3.70;;
85738;SDS011;76182;41.498;22.100;2024-02-14T01:53:36;5.25;;;3.92;;
85738;SDS011;76182;41.498;22.100;2024-02-14T01:56:03;4.18;;;3.13;;
85738;SDS011;76182;41.498;22.100;2024-02-14T01:58:29;5.32;;;3.80;;
85738;SDS011;76182;41.498;22.100;2024-02-14T02:00:55;4.97;;;3.95;;
85738;SDS011;76182;41.498;22.100;2024-02-14T02:03:25;6.00;;;3.92;;
85738;SDS011;76182;41.498;22.100;2024-02-14T02:05:54;6.93;;;4.10;;
85738;SDS011;76182;41.498;22.100;2024-02-14T02:08:20;5.18;;;3.70;;
85738;SDS011;76182;41.498;22.100;2024-02-14T02:10:46;4.43;;;3.60;;
85738;SDS011;76182;41.498;22.100;2024-02-14T02:13:12;5.78;;;4.22;;
85738;SDS011;76182;41.498;22.100;2024-02-14T02:15:40;6.45;;;4.40;;
85738;SDS011;76182;41.498;22.100;2024-02-14T02:18:09;5.97;;;4.35;;
85738;SDS011;76182;41.498;22.100;2024-02-14T02:20:35;4.97;;;3.58;;
85738;SDS011;76182;41.498;22.100;2024-02-14T02:23:01;5.80;;;4.03;;
85738;SDS011;76182;41.498;22.100;2024-02-14T02:25:26;5.47;;;4.28;;
85738;SDS011;76182;41.498;22.100;2024-02-14T02:27:52;6.57;;;4.03;;
85738;SDS011;76182;41.498;22.100;2024-02-14T02:30:21;5.95;;;4.72;;
85738;SDS011;76182;41.498;22.100;2024-02-14T02:32:47;6.07;;;4.65;;
85738;SDS011;76182;41.498;22.100;2024-02-14T02:35:13;6.43;;;4.97;;
85738;SDS011;76182;41.498;22.100;2024-02-14T02:37:39;6.38;;;4.75;;
85738;SDS011;76182;41.498;22.100;2024-02-14T02:40:04;7.47;;;5.65;;
85738;SDS011;76182;41.498;22.100;2024-02-14T02:42:30;6.22;;;4.97;;
85738;SDS011;76182;41.498;22.100;2024-02-14T02:44:55;6.75;;;4.78;;
85738;SDS011;76182;41.498;22.100;2024-02-14T02:47:21;7.85;;;4.88;;
85738;SDS011;76182;41.498;22.100;2024-02-14T02:49:46;5.93;;;4.45;;
85738;SDS011;76182;41.498;22.100;2024-02-14T02:52:12;9.40;;;5.00;;
85738;SDS011;76182;41.498;22.100;2024-02-14T02:54:37;6.07;;;4.63;;
85738;SDS011;76182;41.498;22.100;2024-02-14T02:57:08;6.28;;;4.60;;
85738;SDS011;76182;41.498;22.100;2024-02-14T02:59:37;5.85;;;4.57;;
85738;SDS011;76182;41.498;22.100;2024-02-14T03:02:03;6.28;;;4.72;;
85738;SDS011;76182;41.498;22.100;2024-02-14T03:04:28;5.47;;;4.50;;
85738;SDS011;76182;41.498;22.100;2024-02-14T03:06:56;5.68;;;4.88;;
85738;SDS011;76182;41.498;22.100;2024-02-14T03:09:23;6.25;;;5.00;;
85738;SDS011;76182;41.498;22.100;2024-02-14T03:11:51;7.90;;;5.50;;
85738;SDS011;76182;41.498;22.100;2024-02-14T03:14:16;6.43;;;5.03;;
85738;SDS011;76182;41.498;22.100;2024-02-14T03:16:42;5.63;;;4.53;;
85738;SDS011;76182;41.498;22.100;2024-02-14T03:19:07;5.88;;;4.55;;
85738;SDS011;76182;41.498;22.100;2024-02-14T03:21:33;5.97;;;4.43;;
85738;SDS011;76182;41.498;22.100;2024-02-14T03:24:00;6.90;;;5.13;;
85738;SDS011;76182;41.498;22.100;2024-02-14T03:26:28;7.25;;;5.32;;
85738;SDS011;76182;41.498;22.100;2024-02-14T03:28:53;8.63;;;6.10;;
85738;SDS011;76182;41.498;22.100;2024-02-14T03:31:19;6.80;;;5.15;;
85738;SDS011;76182;41.498;22.100;2024-02-14T03:33:45;7.63;;;5.40;;
85738;SDS011;76182;41.498;22.100;2024-02-14T03:36:11;7.63;;;5.22;;
85738;SDS011;76182;41.498;22.100;2024-02-14T03:38:36;7.22;;;5.18;;
85738;SDS011;76182;41.498;22.100;2024-02-14T03:41:04;7.55;;;5.57;;
85738;SDS011;76182;41.498;22.100;2024-02-14T03:43:30;5.80;;;4.70;;
85738;SDS011;76182;41.498;22.100;2024-02-14T03:45:57;7.50;;;4.85;;
85738;SDS011;76182;41.498;22.100;2024-02-14T03:48:22;6.80;;;4.75;;
85738;SDS011;76182;41.498;22.100;2024-02-14T03:50:48;8.65;;;6.13;;
85738;SDS011;76182;41.498;22.100;2024-02-14T03:53:13;7.43;;;5.10;;
85738;SDS011;76182;41.498;22.100;2024-02-14T03:55:39;8.40;;;5.57;;
85738;SDS011;76182;41.498;22.100;2024-02-14T03:58:05;8.60;;;5.53;;
85738;SDS011;76182;41.498;22.100;2024-02-14T04:00:31;6.65;;;4.82;;
85738;SDS011;76182;41.498;22.100;2024-02-14T04:02:57;6.63;;;4.68;;
85738;SDS011;76182;41.498;22.100;2024-02-14T04:05:25;9.45;;;5.30;;
85738;SDS011;76182;41.498;22.100;2024-02-14T04:07:53;8.77;;;5.65;;
85738;SDS011;76182;41.498;22.100;2024-02-14T04:10:19;7.55;;;5.40;;
85738;SDS011;76182;41.498;22.100;2024-02-14T04:12:45;7.88;;;4.95;;
85738;SDS011;76182;41.498;22.100;2024-02-14T04:15:10;7.57;;;4.80;;
85738;SDS011;76182;41.498;22.100;2024-02-14T04:17:36;7.90;;;5.20;;
85738;SDS011;76182;41.498;22.100;2024-02-14T04:20:02;11.27;;;5.70;;
85738;SDS011;76182;41.498;22.100;2024-02-14T04:22:27;9.23;;;5.32;;
85738;SDS011;76182;41.498;22.100;2024-02-14T04:24:53;7.47;;;4.57;;
85738;SDS011;76182;41.498;22.100;2024-02-14T04:27:18;6.15;;;4.43;;
85738;SDS011;76182;41.498;22.100;2024-02-14T04:29:46;11.98;;;5.47;;
85738;SDS011;76182;41.498;22.100;2024-02-14T04:32:13;7.88;;;4.85;;
85738;SDS011;76182;41.498;22.100;2024-02-14T04:34:39;8.43;;;4.65;;
85738;SDS011;76182;41.498;22.100;2024-02-14T04:37:05;6.95;;;5.10;;
85738;SDS011;76182;41.498;22.100;2024-02-14T04:39:37;10.95;;;5.28;;
85738;SDS011;76182;41.498;22.100;2024-02-14T04:42:03;6.97;;;4.57;;
85738;SDS011;76182;41.498;22.100;2024-02-14T04:44:30;8.45;;;5.05;;
85738;SDS011;76182;41.498;22.100;2024-02-14T04:46:57;8.75;;;5.63;;
85738;SDS011;76182;41.498;22.100;2024-02-14T04:49:26;9.77;;;5.15;;
85738;SDS011;76182;41.498;22.100;2024-02-14T04:51:54;6.88;;;5.25;;
85738;SDS011;76182;41.498;22.100;2024-02-14T04:54:20;7.93;;;5.03;;
85738;SDS011;76182;41.498;22.100;2024-02-14T04:56:45;8.30;;;5.20;;
85738;SDS011;76182;41.498;22.100;2024-02-14T04:59:11;9.70;;;5.30;;
85738;SDS011;76182;41.498;22.100;2024-02-14T05:01:37;11.25;;;5.60;;
85738;SDS011;76182;41.498;22.100;2024-02-14T05:04:04;8.48;;;5.40;;
85738;SDS011;76182;41.498;22.100;2024-02-14T05:06:30;11.07;;;6.30;;
85738;SDS011;76182;41.498;22.100;2024-02-14T05:08:55;9.55;;;5.47;;
85738;SDS011;76182;41.498;22.100;2024-02-14T05:11:21;9.02;;;6.22;;
85738;SDS011;76182;41.498;22.100;2024-02-14T05:13:46;10.70;;;5.13;;
85738;SDS011;76182;41.498;22.100;2024-02-14T05:16:12;8.95;;;5.53;;
85738;SDS011;76182;41.498;22.100;2024-02-14T05:18:38;8.57;;;5.07;;
85738;SDS011;76182;41.498;22.100;2024-02-14T05:21:06;8.43;;;4.78;;
85738;SDS011;76182;41.498;22.100;2024-02-14T05:23:33;10.30;;;5.35;;
85738;SDS011;76182;41.498;22.100;2024-02-14T05:25:59;7.95;;;5.40;;
85738;SDS011;76182;41.498;22.100;2024-02-14T05:28:27;11.52;;;5.40;;
85738;SDS011;76182;41.498;22.100;2024-02-14T05:30:53;9.50;;;5.25;;
85738;SDS011;76182;41.498;22.100;2024-02-14T05:33:18;7.70;;;4.93;;
85738;SDS011;76182;41.498;22.100;2024-02-14T05:35:47;11.20;;;4.97;;
85738;SDS011;76182;41.498;22.100;2024-02-14T05:38:13;9.60;;;5.20;;
85738;SDS011;76182;41.498;22.100;2024-02-14T05:40:39;14.38;;;5.63;;
85738;SDS011;76182;41.498;22.100;2024-02-14T05:43:05;11.68;;;5.03;;
85738;SDS011;76182;41.498;22.100;2024-02-14T05:45:32;9.07;;;4.82;;
85738;SDS011;76182;41.498;22.100;2024-02-14T05:47:58;10.50;;;4.38;;
85738;SDS011;76182;41.498;22.100;2024-02-14T05:50:23;9.40;;;4.72;;
85738;SDS011;76182;41.498;22.100;2024-02-14T05:52:49;8.20;;;4.90;;
85738;SDS011;76182;41.498;22.100;2024-02-14T05:55:14;7.60;;;4.30;;
85738;SDS011;76182;41.498;22.100;2024-02-14T05:57:40;8.18;;;4.50;;
85738;SDS011;76182;41.498;22.100;2024-02-14T06:00:07;8.85;;;4.57;;
85738;SDS011;76182;41.498;22.100;2024-02-14T06:02:35;8.07;;;5.25;;
85738;SDS011;76182;41.498;22.100;2024-02-14T06:05:00;7.88;;;4.88;;
85738;SDS011;76182;41.498;22.100;2024-02-14T06:07:26;10.38;;;5.10;;
85738;SDS011;76182;41.498;22.100;2024-02-14T06:09:51;9.00;;;5.13;;
85738;SDS011;76182;41.498;22.100;2024-02-14T06:12:16;7.35;;;4.60;;
85738;SDS011;76182;41.498;22.100;2024-02-14T06:14:42;8.77;;;4.93;;
85738;SDS011;76182;41.498;22.100;2024-02-14T06:17:07;12.27;;;4.75;;
85738;SDS011;76182;41.498;22.100;2024-02-14T06:19:33;12.40;;;5.05;;
85738;SDS011;76182;41.498;22.100;2024-02-14T06:22:00;8.18;;;4.93;;
85738;SDS011;76182;41.498;22.100;2024-02-14T06:24:25;8.02;;;4.93;;
85738;SDS011;76182;41.498;22.100;2024-02-14T06:26:51;7.75;;;4.55;;
85738;SDS011;76182;41.498;22.100;2024-02-14T06:29:16;7.00;;;4.90;;
85738;SDS011;76182;41.498;22.100;2024-02-14T06:31:42;8.18;;;5.30;;
85738;SDS011;76182;41.498;22.100;2024-02-14T06:34:07;9.48;;;4.93;;
85738;SDS011;76182;41.498;22.100;2024-02-14T06:36:33;7.03;;;4.22;;
85738;SDS011;76182;41.498;22.100;2024-02-14T06:38:58;8.23;;;4.72;;
85738;SDS011;76182;41.498;22.100;2024-02-14T06:41:24;6.85;;;4.43;;
85738;SDS011;76182;41.498;22.100;2024-02-14T06:43:49;6.82;;;4.43;;
85738;SDS011;76182;41.498;22.100;2024-02-14T06:46:15;10.77;;;5.50;;
85738;SDS011;76182;41.498;22.100;2024-02-14T06:48:41;7.10;;;5.07;;
85738;SDS011;76182;41.498;22.100;2024-02-14T06:51:06;10.27;;;5.15;;
85738;SDS011;76182;41.498;22.100;2024-02-14T06:53:32;8.82;;;5.30;;
85738;SDS011;76182;41.498;22.100;2024-02-14T06:55:58;9.85;;;4.85;;
85738;SDS011;76182;41.498;22.100;2024-02-14T06:58:23;7.32;;;4.97;;
85738;SDS011;76182;41.498;22.100;2024-02-14T07:00:49;7.00;;;4.63;;
85738;SDS011;76182;41.498;22.100;2024-02-14T07:03:15;6.47;;;4.85;;
85738;SDS011;76182;41.498;22.100;2024-02-14T07:05:40;7.70;;;5.07;;
85738;SDS011;76182;41.498;22.100;2024-02-14T07:08:06;6.68;;;4.60;;
85738;SDS011;76182;41.498;22.100;2024-02-14T07:10:32;7.95;;;5.00;;
85738;SDS011;76182;41.498;22.100;2024-02-14T07:12:58;8.85;;;4.78;;
85738;SDS011;76182;41.498;22.100;2024-02-14T07:15:23;10.77;;;4.95;;
85738;SDS011;76182;41.498;22.100;2024-02-14T07:17:53;8.25;;;4.18;;
85738;SDS011;76182;41.498;22.100;2024-02-14T07:20:20;8.27;;;4.97;;
85738;SDS011;76182;41.498;22.100;2024-02-14T07:22:45;6.43;;;4.75;;
85738;SDS011;76182;41.498;22.100;2024-02-14T07:25:13;11.65;;;5.47;;
85738;SDS011;76182;41.498;22.100;2024-02-14T07:27:39;11.18;;;5.53;;
85738;SDS011;76182;41.498;22.100;2024-02-14T07:30:05;8.30;;;4.80;;
85738;SDS011;76182;41.498;22.100;2024-02-14T07:32:31;8.07;;;4.20;;
85738;SDS011;76182;41.498;22.100;2024-02-14T07:34:56;7.35;;;4.75;;
85738;SDS011;76182;41.498;22.100;2024-02-14T07:37:22;7.72;;;4.25;;
85738;SDS011;76182;41.498;22.100;2024-02-14T07:39:47;8.10;;;4.65;;
85738;SDS011;76182;41.498;22.100;2024-02-14T07:42:13;6.97;;;4.50;;
85738;SDS011;76182;41.498;22.100;2024-02-14T07:44:38;8.43;;;4.65;;
85738;SDS011;76182;41.498;22.100;2024-02-14T07:47:04;6.93;;;4.78;;
85738;SDS011;76182;41.498;22.100;2024-02-14T07:49:30;13.18;;;5.28;;
85738;SDS011;76182;41.498;22.100;2024-02-14T07:51:55;6.25;;;4.47;;
85738;SDS011;76182;41.498;22.100;2024-02-14T07:54:21;6.82;;;4.85;;
85738;SDS011;76182;41.498;22.100;2024-02-14T07:56:47;7.68;;;4.95;;
85738;SDS011;76182;41.498;22.100;2024-02-14T07:59:12;5.75;;;3.72;;
85738;SDS011;76182;41.498;22.100;2024-02-14T08:01:37;7.05;;;4.63;;
85738;SDS011;76182;41.498;22.100;2024-02-14T08:04:03;10.60;;;5.13;;
85738;SDS011;76182;41.498;22.100;2024-02-14T08:06:29;7.57;;;4.40;;
85738;SDS011;76182;41.498;22.100;2024-02-14T08:08:55;10.23;;;5.70;;
85738;SDS011;76182;41.498;22.100;2024-02-14T08:11:26;9.43;;;5.32;;
85738;SDS011;76182;41.498;22.100;2024-02-14T08:13:52;10.63;;;5.70;;
85738;SDS011;76182;41.498;22.100;2024-02-14T08:16:19;9.32;;;5.40;;
85738;SDS011;76182;41.498;22.100;2024-02-14T08:18:45;11.88;;;4.90;;
85738;SDS011;76182;41.498;22.100;2024-02-14T08:21:10;13.60;;;5.28;;
85738;SDS011;76182;41.498;22.100;2024-02-14T08:23:37;7.80;;;5.15;;
85738;SDS011;76182;41.498;22.100;2024-02-14T08:26:04;10.90;;;5.38;;
85738;SDS011;76182;41.498;22.100;2024-02-14T08:28:35;8.75;;;4.53;;
85738;SDS011;76182;41.498;22.100;2024-02-14T08:31:01;12.05;;;4.55;;
85738;SDS011;76182;41.498;22.100;2024-02-14T08:33:27;6.20;;;4.07;;
85738;SDS011;76182;41.498;22.100;2024-02-14T08:35:53;9.98;;;5.00;;
85738;SDS011;76182;41.498;22.100;2024-02-14T08:38:22;7.90;;;4.88;;
85738;SDS011;76182;41.498;22.100;2024-02-14T08:40:48;12.57;;;6.30;;
85738;SDS011;76182;41.498;22.100;2024-02-14T08:43:13;9.45;;;6.03;;
85738;SDS011;76182;41.498;22.100;2024-02-14T08:45:39;10.02;;;4.60;;
85738;SDS011;76182;41.498;22.100;2024-02-14T08:48:04;6.90;;;4.50;;
85738;SDS011;76182;41.498;22.100;2024-02-14T08:50:31;7.78;;;5.43;;
85738;SDS011;76182;41.498;22.100;2024-02-14T08:52:57;7.78;;;4.57;;
85738;SDS011;76182;41.498;22.100;2024-02-14T08:55:22;5.97;;;4.07;;
85738;SDS011;76182;41.498;22.100;2024-02-14T08:57:48;8.63;;;4.75;;
85738;SDS011;76182;41.498;22.100;2024-02-14T09:00:13;11.43;;;4.72;;
85738;SDS011;76182;41.498;22.100;2024-02-14T09:02:40;12.25;;;5.05;;
85738;SDS011;76182;41.498;22.100;2024-02-14T09:05:06;7.90;;;4.15;;
85738;SDS011;76182;41.498;22.100;2024-02-14T09:07:32;6.35;;;4.57;;
85738;SDS011;76182;41.498;22.100;2024-02-14T09:09:58;11.68;;;5.53;;
85738;SDS011;76182;41.498;22.100;2024-02-14T09:12:24;9.98;;;5.25;;
85738;SDS011;76182;41.498;22.100;2024-02-14T09:14:50;8.85;;;5.45;;
85738;SDS011;76182;41.498;22.100;2024-02-14T09:17:16;5.70;;;3.80;;
85738;SDS011;76182;41.498;22.100;2024-02-14T09:19:41;8.65;;;4.72;;
85738;SDS011;76182;41.498;22.100;2024-02-14T09:22:07;7.38;;;4.75;;
85738;SDS011;76182;41.498;22.100;2024-02-14T09:24:32;6.15;;;3.83;;
85738;SDS011;76182;41.498;22.100;2024-02-14T09:26:58;9.75;;;4.55;;
85738;SDS011;76182;41.498;22.100;2024-02-14T09:29:25;9.45;;;5.18;;
85738;SDS011;76182;41.498;22.100;2024-02-14T09:31:50;7.88;;;4.18;;
85738;SDS011;76182;41.498;22.100;2024-02-14T09:34:16;6.47;;;4.55;;
85738;SDS011;76182;41.498;22.100;2024-02-14T09:36:44;7.43;;;4.30;;
85738;SDS011;76182;41.498;22.100;2024-02-14T09:39:10;14.23;;;5.57;;
85738;SDS011;76182;41.498;22.100;2024-02-14T09:44:05;8.20;;;4.30;;
85738;SDS011;76182;41.498;22.100;2024-02-14T09:46:30;7.20;;;4.78;;
85738;SDS011;76182;41.498;22.100;2024-02-14T09:48:57;8.82;;;4.47;;
85738;SDS011;76182;41.498;22.100;2024-02-14T09:51:24;7.88;;;4.35;;
85738;SDS011;76182;41.498;22.100;2024-02-14T09:53:50;11.50;;;6.03;;
85738;SDS011;76182;41.498;22.100;2024-02-14T09:56:19;12.40;;;5.32;;
85738;SDS011;76182;41.498;22.100;2024-02-14T09:58:48;8.80;;;4.68;;
85738;SDS011;76182;41.498;22.100;2024-02-14T10:01:25;6.22;;;4.88;;
85738;SDS011;76182;41.498;22.100;2024-02-14T10:03:52;6.45;;;4.25;;
85738;SDS011;76182;41.498;22.100;2024-02-14T10:06:18;10.45;;;4.30;;
85738;SDS011;76182;41.498;22.100;2024-02-14T10:08:48;6.60;;;4.13;;
85738;SDS011;76182;41.498;22.100;2024-02-14T10:11:15;10.60;;;4.55;;
85738;SDS011;76182;41.498;22.100;2024-02-14T10:13:45;32.72;;;5.97;;
85738;SDS011;76182;41.498;22.100;2024-02-14T10:16:15;7.40;;;3.85;;
85738;SDS011;76182;41.498;22.100;2024-02-14T10:18:41;5.75;;;4.03;;
85738;SDS011;76182;41.498;22.100;2024-02-14T10:21:08;10.77;;;5.15;;
85738;SDS011;76182;41.498;22.100;2024-02-14T10:23:39;8.20;;;4.07;;
85738;SDS011;76182;41.498;22.100;2024-02-14T10:26:04;7.13;;;4.15;;
85738;SDS011;76182;41.498;22.100;2024-02-14T10:28:30;8.13;;;5.03;;
85738;SDS011;76182;41.498;22.100;2024-02-14T10:30:58;8.23;;;5.32;;
85738;SDS011;76182;41.498;22.100;2024-02-14T10:33:24;13.82;;;4.93;;
85738;SDS011;76182;41.498;22.100;2024-02-14T10:35:54;10.57;;;5.75;;
85738;SDS011;76182;41.498;22.100;2024-02-14T10:38:22;6.30;;;4.80;;
85738;SDS011;76182;41.498;22.100;2024-02-14T10:40:48;15.02;;;5.07;;
85738;SDS011;76182;41.498;22.100;2024-02-14T10:43:14;8.23;;;4.63;;
85738;SDS011;76182;41.498;22.100;2024-02-14T10:45:39;7.75;;;4.70;;
85738;SDS011;76182;41.498;22.100;2024-02-14T10:48:05;6.18;;;3.97;;
85738;SDS011;76182;41.498;22.100;2024-02-14T10:50:36;5.90;;;4.40;;
85738;SDS011;76182;41.498;22.100;2024-02-14T10:53:10;10.77;;;4.30;;
85738;SDS011;76182;41.498;22.100;2024-02-14T10:55:40;6.20;;;4.18;;
85738;SDS011;76182;41.498;22.100;2024-02-14T10:58:10;8.07;;;5.07;;
85738;SDS011;76182;41.498;22.100;2024-02-14T11:00:39;5.57;;;3.88;;
85738;SDS011;76182;41.498;22.100;2024-02-14T11:03:06;5.13;;;3.67;;
85738;SDS011;76182;41.498;22.100;2024-02-14T11:05:42;6.47;;;4.05;;
85738;SDS011;76182;41.498;22.100;2024-02-14T11:08:10;4.05;;;3.03;;
85738;SDS011;76182;41.498;22.100;2024-02-14T11:10:54;6.95;;;4.05;;
85738;SDS011;76182;41.498;22.100;2024-02-14T11:13:21;7.72;;;4.97;;
85738;SDS011;76182;41.498;22.100;2024-02-14T11:15:51;7.72;;;4.00;;
85738;SDS011;76182;41.498;22.100;2024-02-14T11:18:24;11.00;;;4.55;;
85738;SDS011;76182;41.498;22.100;2024-02-14T11:20:50;4.45;;;3.33;;
85738;SDS011;76182;41.498;22.100;2024-02-14T11:23:20;6.20;;;3.88;;
85738;SDS011;76182;41.498;22.100;2024-02-14T11:25:47;7.90;;;4.47;;
85738;SDS011;76182;41.498;22.100;2024-02-14T11:30:40;7.82;;;3.75;;
85738;SDS011;76182;41.498;22.100;2024-02-14T11:33:09;9.18;;;4.63;;
85738;SDS011;76182;41.498;22.100;2024-02-14T11:35:41;7.60;;;3.83;;
85738;SDS011;76182;41.498;22.100;2024-02-14T11:38:06;9.90;;;4.32;;
85738;SDS011;76182;41.498;22.100;2024-02-14T11:40:32;6.97;;;4.10;;
85738;SDS011;76182;41.498;22.100;2024-02-14T11:42:58;5.47;;;3.47;;
85738;SDS011;76182;41.498;22.100;2024-02-14T11:45:24;7.78;;;3.40;;
85738;SDS011;76182;41.498;22.100;2024-02-14T11:47:50;6.53;;;3.20;;
85738;SDS011;76182;41.498;22.100;2024-02-14T11:50:17;6.20;;;4.10;;
85738;SDS011;76182;41.498;22.100;2024-02-14T11:52:43;8.63;;;4.13;;
85738;SDS011;76182;41.498;22.100;2024-02-14T11:55:09;6.47;;;3.88;;
85738;SDS011;76182;41.498;22.100;2024-02-14T11:57:38;11.73;;;5.88;;
85738;SDS011;76182;41.498;22.100;2024-02-14T12:00:03;8.25;;;3.40;;
85738;SDS011;76182;41.498;22.100;2024-02-14T12:02:29;14.45;;;3.70;;
85738;SDS011;76182;41.498;22.100;2024-02-14T12:04:55;6.07;;;3.17;;
85738;SDS011;76182;41.498;22.100;2024-02-14T12:07:22;12.52;;;3.45;;
85738;SDS011;76182;41.498;22.100;2024-02-14T12:09:48;6.05;;;3.20;;
85738;SDS011;76182;41.498;22.100;2024-02-14T12:12:14;10.43;;;4.22;;
85738;SDS011;76182;41.498;22.100;2024-02-14T12:14:42;13.15;;;4.13;;
85738;SDS011;76182;41.498;22.100;2024-02-14T12:17:09;8.38;;;3.17;;
85738;SDS011;76182;41.498;22.100;2024-02-14T12:19:35;4.78;;;3.28;;
85738;SDS011;76182;41.498;22.100;2024-02-14T12:22:03;7.70;;;3.30;;
85738;SDS011;76182;41.498;22.100;2024-02-14T12:24:37;8.63;;;4.20;;
85738;SDS011;76182;41.498;22.100;2024-02-14T12:27:04;9.77;;;4.28;;
85738;SDS011;76182;41.498;22.100;2024-02-14T12:29:29;7.97;;;2.90;;
85738;SDS011;76182;41.498;22.100;2024-02-14T12:32:07;4.60;;;3.22;;
85738;SDS011;76182;41.498;22.100;2024-02-14T12:34:33;7.00;;;3.47;;
85738;SDS011;76182;41.498;22.100;2024-02-14T12:36:59;6.93;;;3.92;;
85738;SDS011;76182;41.498;22.100;2024-02-14T12:39:28;8.35;;;4.10;;
85738;SDS011;76182;41.498;22.100;2024-02-14T12:41:54;14.05;;;4.60;;
85738;SDS011;76182;41.498;22.100;2024-02-14T12:44:20;12.25;;;3.72;;
85738;SDS011;76182;41.498;22.100;2024-02-14T12:46:45;10.27;;;4.38;;
85738;SDS011;76182;41.498;22.100;2024-02-14T12:49:11;5.90;;;3.15;;
85738;SDS011;76182;41.498;22.100;2024-02-14T12:51:37;6.40;;;3.17;;
85738;SDS011;76182;41.498;22.100;2024-02-14T12:54:06;8.60;;;3.47;;
85738;SDS011;76182;41.498;22.100;2024-02-14T12:56:34;4.90;;;3.17;;
85738;SDS011;76182;41.498;22.100;2024-02-14T12:58:59;10.88;;;4.18;;
85738;SDS011;76182;41.498;22.100;2024-02-14T13:01:25;6.88;;;3.60;;
85738;SDS011;76182;41.498;22.100;2024-02-14T13:03:50;6.03;;;3.25;;
85738;SDS011;76182;41.498;22.100;2024-02-14T13:06:16;5.60;;;2.90;;
85738;SDS011;76182;41.498;22.100;2024-02-14T13:08:41;13.07;;;4.30;;
85738;SDS011;76182;41.498;22.100;2024-02-14T13:11:07;4.95;;;3.60;;
85738;SDS011;76182;41.498;22.100;2024-02-14T13:13:36;6.40;;;3.60;;
85738;SDS011;76182;41.498;22.100;2024-02-14T13:16:01;7.78;;;3.90;;
85738;SDS011;76182;41.498;22.100;2024-02-14T13:18:27;6.55;;;4.60;;
85738;SDS011;76182;41.498;22.100;2024-02-14T13:20:52;9.18;;;4.35;;
85738;SDS011;76182;41.498;22.100;2024-02-14T13:23:25;14.50;;;5.05;;
85738;SDS011;76182;41.498;22.100;2024-02-14T13:25:51;12.85;;;4.75;;
85738;SDS011;76182;41.498;22.100;2024-02-14T13:28:16;10.68;;;4.47;;
85738;SDS011;76182;41.498;22.100;2024-02-14T13:30:42;12.38;;;3.95;;
85738;SDS011;76182;41.498;22.100;2024-02-14T13:33:08;9.23;;;3.80;;
85738;SDS011;76182;41.498;22.100;2024-02-14T13:35:36;5.50;;;3.67;;
85738;SDS011;76182;41.498;22.100;2024-02-14T13:38:03;5.93;;;3.15;;
85738;SDS011;76182;41.498;22.100;2024-02-14T13:40:30;6.03;;;3.33;;
85738;SDS011;76182;41.498;22.100;2024-02-14T13:42:56;5.70;;;2.88;;
85738;SDS011;76182;41.498;22.100;2024-02-14T13:45:22;13.45;;;5.50;;
85738;SDS011;76182;41.498;22.100;2024-02-14T13:47:48;4.90;;;3.33;;
85738;SDS011;76182;41.498;22.100;2024-02-14T13:50:13;13.13;;;3.70;;
85738;SDS011;76182;41.498;22.100;2024-02-14T13:52:39;10.65;;;4.60;;
85738;SDS011;76182;41.498;22.100;2024-02-14T13:55:04;10.02;;;3.72;;
85738;SDS011;76182;41.498;22.100;2024-02-14T13:57:36;10.27;;;3.70;;
85738;SDS011;76182;41.498;22.100;2024-02-14T14:00:05;6.53;;;3.47;;
85738;SDS011;76182;41.498;22.100;2024-02-14T14:02:34;11.85;;;4.63;;
85738;SDS011;76182;41.498;22.100;2024-02-14T14:05:02;8.15;;;3.20;;
85738;SDS011;76182;41.498;22.100;2024-02-14T14:07:28;7.10;;;3.47;;
85738;SDS011;76182;41.498;22.100;2024-02-14T14:09:54;5.18;;;3.22;;
85738;SDS011;76182;41.498;22.100;2024-02-14T14:12:19;13.13;;;3.63;;
85738;SDS011;76182;41.498;22.100;2024-02-14T14:14:45;8.73;;;3.97;;
85738;SDS011;76182;41.498;22.100;2024-02-14T14:17:11;4.28;;;2.40;;
85738;SDS011;76182;41.498;22.100;2024-02-14T14:19:36;6.88;;;3.28;;
85738;SDS011;76182;41.498;22.100;2024-02-14T14:22:02;4.28;;;2.90;;
85738;SDS011;76182;41.498;22.100;2024-02-14T14:24:27;6.10;;;3.47;;
85738;SDS011;76182;41.498;22.100;2024-02-14T14:26:56;8.55;;;3.95;;
85738;SDS011;76182;41.498;22.100;2024-02-14T14:29:21;5.40;;;3.17;;
85738;SDS011;76182;41.498;22.100;2024-02-14T14:31:47;6.47;;;3.90;;